Latest Weather Observations for Bunbury

IDW60801

Issued at 1:05 pm WST Friday 25 April 2014 (issued every 30 minutes, with the page automatically refreshed every 10 minutes)

About weather observations | Map of weather stations | Latest weather observations for WA | Other Formats
Station Details ID: 009965 Name: BUNBURY Lat: -33.36 Lon: 115.64 Height: 5.2 m
Data from the previous 72 hours. | See also: Recent months at Bunbury
Date/Time
WST
Temp
°C
App
Temp
°C
Dew
Point
Rel
Hum
%
Delta-T
°C
Wind Press
QNH
hPa
Press
MSL
hPa
Rain
since 9 am
mm
Dir
 
Spd
km/h
Gust
km/h
Spd
kts
Gust
kts
25/01:00pm 24.8 23.6 11.7 44 7.4 ESE 9 15 5 8 1012.7 1012.7 0.0
25/12:30pm 22.6 20.7 11.7 50 6.1 SE 13 24 7 13 1013.2 - 0.0
25/12:00pm 22.8 20.3 12.4 52 5.9 ESE 17 22 9 12 1013.4 1013.4 0.0
25/11:30am 22.3 19.1 12.0 52 5.8 SSE 20 28 11 15 1013.5 - 0.0
25/11:00am 21.9 19.0 12.2 54 5.5 SSE 19 26 10 14 1013.6 1013.6 0.0
25/10:30am 21.4 19.1 13.1 59 4.7 SE 17 22 9 12 1013.7 - 0.0
25/10:00am 20.3 18.6 13.5 65 3.9 SE 15 24 8 13 1013.4 1013.4 0.0
25/09:30am 21.8 19.4 13.9 61 4.6 S 19 26 10 14 1013.2 - 0.0
25/09:00am 19.9 18.3 13.8 68 3.5 S 15 24 8 13 1013.1 1013.1 0.0
25/08:30am 18.3 17.0 13.8 75 2.6 SSE 13 20 7 11 1013.0 - 0.0
25/08:00am 16.8 16.4 14.1 84 1.5 S 9 15 5 8 1012.3 1012.3 0.0
25/07:30am 15.8 15.8 14.2 90 0.9 S 7 11 4 6 1011.9 - 0.0
25/07:00am 15.2 15.3 13.9 92 0.7 S 6 7 3 4 1011.6 1011.6 0.0
25/06:30am 15.1 15.1 13.6 91 0.8 S 6 7 3 4 1011.6 - 0.0
25/06:00am 15.0 15.3 13.5 91 0.8 S 4 6 2 3 1011.5 1011.5 0.0
25/05:30am 15.1 15.1 13.6 91 0.8 S 6 7 3 4 1011.0 - 0.0
25/05:00am 14.8 15.8 13.3 91 0.8 CALM 0 6 0 3 1010.8 1010.8 0.0
25/04:30am 15.2 15.9 13.4 89 1.0 S 2 4 1 2 1010.7 - 0.0
25/04:00am 15.6 15.6 13.6 88 1.1 S 6 7 3 4 1010.6 1010.6 0.0
25/03:30am 15.8 15.8 13.5 86 1.3 S 6 7 3 4 1010.4 - 0.0
25/03:00am 15.8 15.4 13.1 84 1.5 S 7 9 4 5 1010.4 1010.4 0.0
25/02:30am 15.8 15.6 12.9 83 1.6 S 6 9 3 5 1010.6 - 0.0
25/02:00am 16.2 15.9 12.7 80 1.9 SSW 6 11 3 6 1010.7 1010.7 0.0
25/01:30am 16.5 16.0 12.8 79 2.1 S 7 11 4 6 1010.6 - 0.0
25/01:00am 16.5 16.0 12.7 78 2.1 S 7 11 4 6 1010.2 1010.2 0.0
25/12:30am 16.7 16.2 12.8 78 2.2 SSW 7 9 4 5 1010.3 - 0.0
25/12:00am 16.9 16.6 12.8 77 2.3 SSW 6 9 3 5 1010.2 1010.2 0.0
 
Date/Time
WST
Temp
°C
App
Temp
°C
Dew
Point
Rel
Hum
%
Delta-T
°C
Wind Press
QNH
hPa
Press
MSL
hPa
Rain
since 9 am
mm
Dir
 
Spd
km/h
Gust
km/h
Spd
kts
Gust
kts
24/11:30pm 16.9 16.4 12.6 76 2.4 S 7 9 4 5 1010.3 - 0.0
24/11:00pm 17.3 16.9 12.4 73 2.7 SSW 6 7 3 4 1010.6 1010.6 0.0
24/10:30pm 17.5 17.1 12.4 72 2.8 SSW 6 7 3 4 1010.5 - 0.0
24/10:00pm 17.9 17.5 12.4 70 3.1 S 6 7 3 4 1010.5 1010.5 0.0
24/09:30pm 18.1 17.6 12.1 68 3.3 S 6 7 3 4 1010.6 - 0.0
24/09:00pm 18.5 18.1 12.3 67 3.4 S 6 9 3 5 1010.6 1010.6 0.0
24/08:30pm 18.9 18.3 12.4 66 3.6 S 7 11 4 6 1010.3 - 0.0
24/08:00pm 19.2 18.4 12.9 67 3.6 S 9 15 5 8 1010.1 1010.1 0.0
24/07:30pm 19.6 19.7 14.4 72 3.0 SSW 7 11 4 6 1009.9 - 0.0
24/07:00pm 19.5 20.2 15.6 78 2.3 SW 6 9 3 5 1009.7 1009.7 0.0
24/06:30pm 19.6 20.2 15.3 76 2.5 SSW 6 7 3 4 1009.1 - 0.0
24/06:00pm 19.6 20.2 15.3 76 2.5 SSW 6 9 3 5 1008.7 1008.7 0.0
24/05:30pm 20.1 20.7 15.3 74 2.8 WSW 6 9 3 5 1008.7 - 0.0
24/05:00pm 20.4 20.3 15.0 71 3.2 WSW 9 13 5 7 1008.4 1008.4 0.0
24/04:30pm 21.4 21.4 14.3 64 4.1 WSW 7 9 4 5 1008.3 - 0.0
24/04:00pm 21.6 21.4 13.5 60 4.7 WSW 7 11 4 6 1008.4 1008.4 0.0
24/03:30pm 23.0 22.7 14.3 58 5.1 WSW 9 13 5 7 1008.4 - 0.0
24/03:00pm 24.1 22.4 9.7 40 7.9 S 9 13 5 7 1008.1 1008.1 0.0
24/02:30pm 23.9 22.1 9.5 40 7.8 S 9 15 5 8 1008.1 - 0.0
24/02:00pm 24.3 22.5 9.5 39 8.1 S 9 17 5 9 1008.1 1008.1 0.0
24/01:30pm 24.1 22.6 10.4 42 7.6 S 9 11 5 6 1008.3 - 0.0
24/01:00pm 23.2 21.8 9.6 42 7.4 S 7 11 4 6 1008.8 1008.8 0.0
24/12:30pm 23.8 22.4 9.4 40 7.8 SSE 7 11 4 6 1009.4 - 0.0
24/12:00pm 22.8 21.4 9.6 43 7.2 SSE 7 13 4 7 1009.8 1009.8 0.0
24/11:30am 22.6 21.4 10.4 46 6.7 S 7 13 4 7 1010.3 - 0.0
24/11:00am 22.4 21.3 10.5 47 6.5 ESE 7 11 4 6 1010.5 1010.5 0.0
24/10:30am 20.6 18.8 10.7 53 5.4 ESE 11 15 6 8 1011.0 - 0.0
24/10:00am 19.9 18.0 10.6 55 5.0 ESE 11 15 6 8 1011.4 1011.4 0.0
24/09:30am 18.9 17.1 10.7 59 4.4 SE 11 15 6 8 1011.9 - 0.0
24/09:00am 17.4 15.6 10.8 65 3.5 SE 11 15 6 8 1012.4 1012.4 0.0
24/08:30am 15.9 14.4 10.7 71 2.8 SE 9 11 5 6 1012.4 - 0.0
24/08:00am 14.8 13.9 10.6 76 2.2 SE 6 9 3 5 1012.5 1012.5 0.0
24/07:30am 14.1 12.8 10.1 77 2.1 SE 7 11 4 6 1012.6 - 0.0
24/07:00am 13.4 12.1 9.8 79 1.8 SE 7 9 4 5 1012.7 1012.7 0.0
24/06:30am 13.4 12.0 9.5 77 2.0 SE 7 9 4 5 1012.6 - 0.0
24/06:00am 15.0 12.6 10.2 73 2.5 E 13 19 7 10 1012.6 1012.6 0.0
24/05:30am 14.5 12.9 10.1 75 2.3 E 9 15 5 8 1012.9 - 0.0
24/05:00am 14.8 12.8 10.0 73 2.5 E 11 15 6 8 1012.9 1012.9 0.0
24/04:30am 15.6 13.3 10.4 71 2.7 E 13 20 7 11 1013.0 - 0.0
24/04:00am 16.0 13.3 10.5 70 2.9 E 15 26 8 14 1013.0 1013.0 0.0
24/03:30am 15.9 13.7 10.7 71 2.8 E 13 20 7 11 1013.2 - 0.0
24/03:00am 15.9 14.1 10.9 72 2.7 E 11 15 6 8 1013.8 1013.8 0.0
24/02:30am 15.7 13.8 10.5 71 2.7 E 11 19 6 10 1013.7 - 0.0
24/02:00am 14.9 13.6 10.1 73 2.5 ESE 7 11 4 6 1014.2 1014.1 0.0
24/01:30am 14.5 13.0 9.1 70 2.8 ESE 7 9 4 5 1014.3 - 0.0
24/01:00am 15.2 12.9 9.1 67 3.1 ESE 11 15 6 8 1014.6 1014.5 0.0
24/12:30am 16.1 12.7 9.1 63 3.6 ESE 17 20 9 11 1014.7 - 0.0
24/12:00am 16.1 13.4 9.1 63 3.6 SE 13 22 7 12 1014.8 1014.7 0.0
 
Date/Time
WST
Temp
°C
App
Temp
°C
Dew
Point
Rel
Hum
%
Delta-T
°C
Wind Press
QNH
hPa
Press
MSL
hPa
Rain
since 9 am
mm
Dir
 
Spd
km/h
Gust
km/h
Spd
kts
Gust
kts
23/11:30pm 15.4 13.5 8.9 65 3.3 SE 9 15 5 8 1014.9 - 0.0
23/11:00pm 15.6 13.8 9.3 66 3.2 SE 9 13 5 7 1015.3 1015.2 0.0
23/10:30pm 14.9 13.4 9.1 68 3.0 SE 7 11 4 6 1015.5 - 0.0
23/10:00pm 15.6 13.8 9.5 67 3.2 SSE 9 13 5 7 1015.7 1015.6 0.0
23/09:30pm 15.8 14.4 9.7 67 3.2 SSE 7 9 4 5 1015.8 - 0.0
23/09:00pm 16.0 14.2 9.4 65 3.4 SSE 9 13 5 7 1015.7 1015.6 0.0
23/08:30pm 16.9 14.8 9.8 63 3.7 SSE 11 17 6 9 1015.7 - 0.0
23/08:00pm 17.5 15.4 9.9 61 4.0 SSE 11 15 6 8 1015.7 1015.6 0.0
23/07:30pm 17.9 16.1 9.3 57 4.5 SSE 9 13 5 7 1015.9 - 0.0
23/07:00pm 18.6 16.8 9.4 55 4.8 SSE 9 13 5 7 1016.0 1015.9 0.0
23/06:30pm 18.5 16.6 9.0 54 5.0 SSE 9 11 5 6 1015.8 - 0.0
23/06:00pm 19.1 17.6 9.0 52 5.3 SE 7 11 4 6 1015.4 1015.3 0.0
23/05:30pm 21.3 19.0 8.9 45 6.6 SE 11 15 6 8 1015.4 - 0.0
23/05:00pm 22.6 20.3 9.0 42 7.3 SE 11 19 6 10 1015.2 1015.1 0.0
23/04:30pm 23.4 21.1 9.0 40 7.7 SE 11 17 6 9 1015.3 - 0.0
23/04:00pm 24.2 21.6 9.4 39 8.0 E 13 19 7 10 1015.3 1015.2 0.0
23/03:30pm 23.2 20.9 8.9 40 7.7 SSE 11 19 6 10 1015.3 - 0.0
23/03:00pm 23.3 20.9 8.6 39 7.8 SE 11 19 6 10 1015.4 1015.3 0.0
23/02:30pm 23.9 21.2 9.1 39 8.0 ESE 13 19 7 10 1015.7 - 0.0
23/02:00pm 23.6 21.0 9.2 40 7.8 ESE 13 22 7 12 1016.1 1016.0 0.0
23/01:30pm 23.0 20.4 9.4 42 7.3 E 13 20 7 11 1016.4 - 0.0
23/01:00pm 22.0 19.6 9.9 46 6.5 SSE 13 20 7 11 1016.9 1016.8 0.0
23/12:30pm 21.6 19.4 9.2 45 6.6 SE 11 19 6 10 1017.4 - 0.0
23/12:00pm 21.3 18.9 8.6 44 6.7 S 11 19 6 10 1017.8 1017.7 0.0
23/11:30am 21.6 19.0 9.5 46 6.5 SE 13 19 7 10 1018.1 - 0.0
23/11:00am 20.3 17.6 8.9 48 6.0 SSE 13 17 7 9 1018.4 1018.3 0.0
23/10:30am 20.0 18.0 10.1 53 5.3 S 11 17 6 9 1018.6 - 0.0
23/10:00am 19.7 19.3 11.2 58 4.6 E 4 7 2 4 1018.9 1018.8 0.0
23/09:30am 17.6 17.1 10.7 64 3.7 E 4 7 2 4 1019.3 - 0.0
23/09:00am 15.8 15.1 10.1 69 3.0 E 4 6 2 3 1019.3 1019.2 0.0
23/08:30am 14.2 14.1 9.6 74 2.4 CALM 0 2 0 1 1019.1 - 0.0
23/08:00am 11.7 10.9 9.8 88 1.0 ENE 4 7 2 4 1018.9 1018.8 0.0
23/07:30am 10.1 10.0 9.3 95 0.4 CALM 0 0 0 0 1018.8 - 0.0
23/07:00am 9.1 8.0 8.5 96 0.3 E 4 4 2 2 1018.5 1018.4 0.0
23/06:30am 8.5 6.9 7.9 96 0.3 E 6 7 3 4 1018.5 - 0.0
23/06:00am 8.0 7.4 7.4 96 0.3 CALM 0 0 0 0 1018.3 1018.2 0.0
23/05:30am 5.9 4.8 5.2 95 0.3 CALM 0 0 0 0 1018.2 - 0.0
23/05:00am 6.1 5.1 5.4 95 0.3 CALM 0 0 0 0 1018.2 1018.1 0.0
23/04:30am 6.1 5.1 5.4 95 0.3 CALM 0 4 0 2 1018.2 - 0.0
23/04:00am 7.1 6.3 6.4 95 0.3 CALM 0 0 0 0 1018.1 1018.0 0.0
23/03:30am 6.0 4.2 5.3 95 0.3 SSW 4 4 2 2 1018.2 - 0.0
23/03:00am 6.6 5.7 5.9 95 0.3 CALM 0 0 0 0 1018.3 1018.2 0.0
23/02:30am 7.7 7.0 7.0 95 0.3 CALM 0 0 0 0 1018.4 - 0.0
23/02:00am 6.6 5.6 5.7 94 0.4 CALM 0 0 0 0 1018.6 1018.5 0.0
23/01:30am 7.6 6.8 6.7 94 0.4 CALM 0 0 0 0 1018.9 - 0.0
23/01:00am 7.3 6.5 6.4 94 0.4 CALM 0 0 0 0 1018.6 1018.5 0.0
23/12:30am 8.1 7.4 7.0 93 0.5 CALM 0 0 0 0 1018.6 - 0.0
23/12:00am 9.3 8.9 8.2 93 0.5 CALM 0 2 0 1 1018.6 1018.5 0.0
 
Date/Time
WST
Temp
°C
App
Temp
°C
Dew
Point
Rel
Hum
%
Delta-T
°C
Wind Press
QNH
hPa
Press
MSL
hPa
Rain
since 9 am
mm
Dir
 
Spd
km/h
Gust
km/h
Spd
kts
Gust
kts
22/11:30pm 9.8 9.1 8.7 93 0.5 ESE 2 6 1 3 1019.0 - 0.0
22/11:00pm 9.6 8.5 8.4 92 0.6 SE 4 6 2 3 1019.0 1018.9 0.0
22/10:30pm 10.1 9.7 8.4 89 0.8 CALM 0 2 0 1 1019.6 - 0.0
22/10:00pm 12.5 12.6 10.0 85 1.3 CALM 0 2 0 1 1019.4 1019.3 0.0
22/09:30pm 13.8 12.8 10.2 79 1.9 S 6 9 3 5 1019.3 - 0.0
22/09:00pm 14.0 13.0 10.2 78 2.0 S 6 7 3 4 1019.4 1019.3 0.0
22/08:30pm 14.1 12.9 9.5 74 2.4 S 6 9 3 5 1019.8 - 0.0
22/08:00pm 15.2 13.9 10.0 71 2.7 S 7 9 4 5 1019.6 1019.5 0.0
22/07:30pm 16.6 15.0 10.2 66 3.4 SSW 9 15 5 8 1019.4 - 0.0
22/07:00pm 17.5 14.4 10.4 63 3.8 SSW 17 24 9 13 1019.1 1019.0 0.0
22/06:30pm 17.9 16.3 10.3 61 4.1 SW 9 15 5 8 1018.6 - 0.0
22/06:00pm 17.8 16.5 9.9 60 4.2 WSW 7 15 4 8 1018.1 1018.0 0.0
22/05:30pm 18.9 16.8 9.7 55 4.9 WSW 11 15 6 8 1018.2 - 0.0
22/05:00pm 19.9 17.9 10.0 53 5.3 WSW 11 17 6 9 1018.3 1018.2 0.0
22/04:30pm 20.1 17.5 9.4 50 5.7 WSW 13 19 7 10 1018.1 - 0.0
22/04:00pm 20.9 18.4 9.8 49 6.0 WSW 13 20 7 11 1018.4 1018.3 0.0
22/03:30pm 20.5 17.6 9.7 50 5.8 WSW 15 22 8 12 1018.4 - 0.0
22/03:00pm 20.9 17.8 10.4 51 5.7 W 17 24 9 13 1018.7 1018.6 0.0
22/02:30pm 21.5 19.3 9.4 46 6.5 WSW 11 17 6 9 1018.9 - 0.0
22/02:00pm 20.7 18.3 9.9 50 5.8 W 13 17 7 9 1019.0 1018.9 0.0
22/01:30pm 21.4 19.6 9.3 46 6.5 W 9 17 5 9 1019.4 - 0.0

Other Formats:

Comma delimited format used in spreadsheet applications
http://www.bom.gov.au/fwo/IDW60801/IDW60801.94604.axf

JavaScript Object Notation format (JSON) in row-major order
http://www.bom.gov.au/fwo/IDW60801/IDW60801.94604.json